Time;durP1;ratioP1;P1;durP2;ratioP2;P2;SDS_P1;SDS_P2;PMS_P1;PMS_P2;Temp;Humidity;BMP_temperature;BMP_pressure;BME280_temperature;BME280_humidity;BME280_pressure;Samples;Min_cycle;Max_cycle;Signal;HPM_P1;HPM_P2
2022/11/10 00:00:34;;;;;;;12.57;2.17;;;12.80;99.90;;;;;;5091549;28;20621;-73
2022/11/10 00:03:05;;;;;;;17.65;2.55;;;12.80;99.90;;;;;;5091694;28;20452;-72
2022/11/10 00:05:31;;;;;;;15.82;2.75;;;12.80;99.90;;;;;;5093648;28;20059;-73
2022/11/10 00:08:01;;;;;;;13.43;2.65;;;12.80;99.90;;;;;;5092808;28;20043;-72
2022/11/10 00:10:26;;;;;;;14.00;2.42;;;12.70;99.90;;;;;;5092657;28;20067;-72
2022/11/10 00:12:52;;;;;;;14.18;2.67;;;12.70;99.90;;;;;;5090294;28;20059;-71
2022/11/10 00:18:03;;;;;;;14.82;3.13;;;12.70;99.90;;;;;;5081549;28;20032;-72
2022/11/10 00:20:29;;;;;;;13.75;2.33;;;12.70;99.90;;;;;;5092879;28;20013;-71
2022/11/10 00:22:55;;;;;;;12.00;2.00;;;12.60;99.90;;;;;;5083315;28;20099;-72
2022/11/10 00:25:21;;;;;;;18.60;3.25;;;12.60;99.90;;;;;;5092779;28;20035;-72
2022/11/10 00:27:47;;;;;;;17.40;2.80;;;12.60;99.90;;;;;;5092795;28;20355;-72
2022/11/10 00:30:13;;;;;;;10.55;2.58;;;12.60;99.90;;;;;;5079207;28;20060;-72
2022/11/10 00:32:39;;;;;;;15.63;2.67;;;12.60;99.90;;;;;;5090820;28;20059;-72
2022/11/10 00:35:06;;;;;;;13.20;2.50;;;12.60;99.90;;;;;;5078551;28;20078;-72
2022/11/10 00:37:32;;;;;;;11.48;2.97;;;12.60;99.90;;;;;;5092576;28;20043;-72
2022/11/10 00:39:59;;;;;;;17.83;2.63;;;12.60;99.90;;;;;;5092854;28;20070;-72
2022/11/10 00:42:24;;;;;;;16.88;2.97;;;12.60;99.90;;;;;;5091855;28;20484;-72
2022/11/10 00:44:50;;;;;;;16.67;2.60;;;12.70;99.90;;;;;;5076404;28;20035;-73
2022/11/10 00:47:16;;;;;;;16.13;2.67;;;12.70;99.90;;;;;;5091817;28;20558;-72
2022/11/10 00:49:41;;;;;;;11.43;2.35;;;12.80;99.90;;;;;;5092226;28;20099;-71
2022/11/10 00:52:07;;;;;;;14.68;2.05;;;12.80;99.90;;;;;;5091330;28;20055;-72
2022/11/10 00:54:33;;;;;;;16.63;2.67;;;12.80;99.90;;;;;;5092265;28;20024;-72
2022/11/10 00:56:58;;;;;;;16.77;2.42;;;12.80;99.90;;;;;;5092483;28;20035;-71
2022/11/10 00:59:24;;;;;;;18.90;2.58;;;12.70;99.90;;;;;;5092190;28;20023;-72
2022/11/10 01:01:49;;;;;;;13.90;2.17;;;12.70;99.90;;;;;;5092791;28;20020;-71
2022/11/10 01:04:15;;;;;;;20.92;3.17;;;12.70;99.90;;;;;;5082193;28;20028;-72
2022/11/10 01:06:40;;;;;;;14.45;2.65;;;12.70;99.90;;;;;;5092706;28;20099;-72
2022/11/10 01:09:06;;;;;;;13.40;2.30;;;12.70;99.90;;;;;;5091472;28;20051;-72
2022/11/10 01:11:34;;;;;;;12.73;2.75;;;12.70;99.90;;;;;;5091786;28;20039;-73
2022/11/10 01:14:00;;;;;;;16.75;2.60;;;12.70;99.90;;;;;;5092112;28;20468;-71
2022/11/10 01:16:28;;;;;;;19.40;3.15;;;12.70;99.90;;;;;;5092408;28;20020;-72
2022/11/10 01:18:56;;;;;;;18.75;2.75;;;12.70;99.90;;;;;;5090309;28;20023;-72
2022/11/10 01:21:22;;;;;;;11.10;2.17;;;12.70;99.90;;;;;;5086905;28;20039;-72
2022/11/10 01:23:48;;;;;;;19.00;2.60;;;12.70;99.90;;;;;;5083372;28;20107;-71
2022/11/10 01:26:15;;;;;;;19.23;3.00;;;12.70;99.90;;;;;;5093981;28;20060;-72
2022/11/10 01:28:41;;;;;;;17.77;2.95;;;12.70;99.90;;;;;;5078952;28;20402;-72
2022/11/10 01:31:10;;;;;;;14.30;2.20;;;12.80;99.90;;;;;;5095895;28;20047;-72
2022/11/10 01:33:36;;;;;;;16.33;2.55;;;12.80;99.90;;;;;;5095309;28;20027;-72
2022/11/10 01:36:02;;;;;;;20.58;2.90;;;12.80;99.90;;;;;;5095582;28;20016;-72
2022/11/10 01:38:30;;;;;;;13.65;2.90;;;12.80;99.90;;;;;;5089759;28;20031;-72
2022/11/10 01:40:56;;;;;;;14.32;2.72;;;12.80;99.90;;;;;;5094821;28;20408;-72
2022/11/10 01:43:22;;;;;;;15.05;2.25;;;12.80;99.90;;;;;;5087864;28;20071;-72
2022/11/10 01:45:57;;;;;;;13.45;2.40;;;12.80;99.90;;;;;;5086473;28;20467;-72
2022/11/10 01:48:38;;;;;;;16.10;2.53;;;12.80;99.90;;;;;;5095477;28;20016;-72
2022/11/10 01:51:13;;;;;;;13.77;1.88;;;12.80;99.90;;;;;;5093009;28;20063;-71
2022/11/10 01:53:45;;;;;;;12.55;2.63;;;12.80;99.90;;;;;;5096104;28;20028;-71
2022/11/10 01:56:12;;;;;;;14.70;2.45;;;12.70;99.90;;;;;;5087621;28;20337;-72
2022/11/10 01:58:43;;;;;;;17.00;3.22;;;12.80;99.90;;;;;;5096000;28;20111;-73
2022/11/10 02:01:09;;;;;;;12.15;1.90;;;12.80;99.90;;;;;;5089427;28;20024;-71
2022/11/10 02:03:41;;;;;;;21.98;2.92;;;12.80;99.90;;;;;;5093327;28;20024;-71
2022/11/10 02:06:07;;;;;;;;;;;12.70;99.90;;;;;;5096027;28;20012;-72
2022/11/10 02:08:34;;;;;;;14.20;2.63;;;12.70;99.90;;;;;;5095252;28;20259;-72
2022/11/10 02:10:59;;;;;;;19.25;3.65;;;12.70;99.90;;;;;;5094955;28;20352;-71
2022/11/10 02:13:25;;;;;;;19.80;3.47;;;12.70;99.90;;;;;;5095153;28;20091;-72
2022/11/10 02:15:51;;;;;;;17.27;3.08;;;12.70;99.90;;;;;;5084545;28;20040;-72
2022/11/10 02:18:17;;;;;;;11.50;2.83;;;12.70;99.90;;;;;;5089282;28;20103;-71
2022/11/10 02:20:45;;;;;;;15.98;2.40;;;12.70;99.90;;;;;;5094803;28;20062;-72
2022/11/10 02:23:33;;;;;;;18.20;3.00;;;12.70;99.90;;;;;;5095089;28;20027;-72
2022/11/10 02:25:59;;;;;;;17.42;2.75;;;12.70;99.90;;;;;;5078402;28;20039;-71
2022/11/10 02:28:26;;;;;;;17.65;2.53;;;12.70;99.90;;;;;;5095241;28;20042;-72
2022/11/10 02:30:52;;;;;;;15.95;2.92;;;12.70;99.90;;;;;;5084181;28;20085;-71
2022/11/10 02:33:17;;;;;;;13.43;3.33;;;12.70;99.90;;;;;;5089018;28;20024;-71
2022/11/10 02:35:44;;;;;;;14.65;2.72;;;12.70;99.90;;;;;;5086572;28;20454;-72
2022/11/10 02:38:10;;;;;;;19.30;2.83;;;12.70;99.90;;;;;;5094211;28;20020;-73
2022/11/10 02:40:36;;;;;;;18.00;3.42;;;12.80;99.90;;;;;;5094211;28;20023;-71
2022/11/10 02:43:05;;;;;;;18.67;2.92;;;12.80;99.90;;;;;;5094820;28;20506;-72
2022/11/10 02:45:30;;;;;;;17.25;3.25;;;12.80;99.90;;;;;;5087631;28;20040;-72
2022/11/10 02:47:56;;;;;;;23.40;3.42;;;12.80;99.90;;;;;;5094181;28;20020;-72
2022/11/10 02:50:22;;;;;;;14.63;2.55;;;12.80;99.90;;;;;;5087493;28;20055;-71
2022/11/10 02:52:47;;;;;;;19.25;5.05;;;12.80;99.90;;;;;;5083051;28;20076;-71
2022/11/10 02:55:13;;;;;;;15.70;2.30;;;12.80;99.90;;;;;;5093822;28;20024;-71
2022/11/10 02:57:40;;;;;;;18.88;3.03;;;12.80;99.90;;;;;;5094076;28;20134;-72
2022/11/10 03:00:07;;;;;;;15.55;3.55;;;12.80;99.90;;;;;;5093905;28;20451;-71
2022/11/10 03:02:33;;;;;;;18.02;2.80;;;12.80;99.90;;;;;;5088098;28;20027;-72
2022/11/10 03:04:58;;;;;;;16.05;2.20;;;12.80;99.90;;;;;;5089566;28;20024;-72
2022/11/10 03:07:24;;;;;;;22.45;2.60;;;12.90;99.90;;;;;;5094232;28;20016;-71
2022/11/10 03:09:49;;;;;;;13.93;2.90;;;12.90;99.90;;;;;;5093572;28;20089;-72
2022/11/10 03:12:16;;;;;;;19.08;3.03;;;12.90;99.90;;;;;;5086495;28;20070;-71
2022/11/10 03:14:41;;;;;;;16.75;2.80;;;12.90;99.90;;;;;;5093376;28;20139;-72
2022/11/10 03:17:07;;;;;;;17.42;2.58;;;12.90;99.90;;;;;;5093333;28;20099;-71
2022/11/10 03:19:33;;;;;;;12.65;2.58;;;12.90;99.90;;;;;;5090098;28;20035;-71
2022/11/10 03:21:58;;;;;;;19.17;3.22;;;12.90;99.90;;;;;;5093963;28;20024;-72
2022/11/10 03:24:24;;;;;;;13.45;2.20;;;12.90;99.90;;;;;;5081652;28;20497;-72
2022/11/10 03:26:49;;;;;;;18.77;2.20;;;12.80;99.90;;;;;;5092439;28;20027;-72
2022/11/10 03:29:15;;;;;;;20.77;3.50;;;12.80;99.90;;;;;;5076403;28;20055;-72
2022/11/10 03:31:40;;;;;;;15.07;3.00;;;12.90;99.90;;;;;;5093593;28;20448;-71
2022/11/10 03:34:06;;;;;;;12.45;2.75;;;12.90;99.90;;;;;;5083172;28;20016;-71
2022/11/10 03:36:31;;;;;;;18.42;2.25;;;12.90;99.90;;;;;;5085978;28;20024;-71
2022/11/10 03:38:57;;;;;;;20.63;3.10;;;12.90;99.90;;;;;;5093063;28;20020;-72
2022/11/10 03:41:23;;;;;;;15.43;2.08;;;12.90;99.90;;;;;;5089905;28;20016;-71
2022/11/10 03:43:48;;;;;;;18.17;2.88;;;12.90;99.90;;;;;;5079978;28;20063;-71
2022/11/10 03:46:15;;;;;;;17.73;2.88;;;12.90;99.90;;;;;;5089220;28;20077;-71
2022/11/10 03:48:41;;;;;;;20.42;2.88;;;12.90;99.90;;;;;;5087080;28;20028;-71
2022/11/10 03:51:06;;;;;;;16.92;2.78;;;12.90;99.90;;;;;;5091677;28;20039;-70
2022/11/10 03:53:32;;;;;;;15.65;2.22;;;12.90;99.90;;;;;;5088743;28;20423;-71
2022/11/10 03:56:03;;;;;;;15.98;2.55;;;12.90;99.90;;;;;;5081094;28;20020;-71
2022/11/10 03:58:28;;;;;;;18.05;3.08;;;12.90;99.90;;;;;;5080912;28;20024;-72
2022/11/10 04:00:54;;;;;;;15.00;2.97;;;13.00;99.90;;;;;;5088879;28;20103;-72
2022/11/10 04:03:20;;;;;;;15.18;2.55;;;13.00;99.90;;;;;;5082607;28;20020;-71
2022/11/10 04:15:40;;;;;;;20.25;3.05;;;13.10;99.90;;;;;;5091657;28;20047;-71
2022/11/10 04:16:47;;;;;;;13.23;2.15;;;13.00;99.90;;;;;;5077738;28;20411;-70
2022/11/10 04:19:13;;;;;;;14.30;2.10;;;13.00;99.90;;;;;;5089674;28;20012;-72
2022/11/10 04:21:38;;;;;;;14.50;2.72;;;13.00;99.90;;;;;;5086548;28;20020;-70
2022/11/10 04:24:05;;;;;;;25.60;3.05;;;13.00;99.90;;;;;;5092955;28;20069;-72
2022/11/10 04:26:32;;;;;;;18.27;2.80;;;12.90;99.90;;;;;;5080270;28;20074;-71
2022/11/10 04:29:03;;;;;;;18.77;3.15;;;12.90;99.90;;;;;;5089204;28;20440;-72
2022/11/10 04:31:31;;;;;;;12.35;2.00;;;12.80;99.90;;;;;;5076760;28;20024;-71
2022/11/10 04:33:57;;;;;;;17.90;2.47;;;12.80;99.90;;;;;;5089316;28;20058;-70
2022/11/10 04:36:26;;;;;;;20.33;2.78;;;12.80;99.90;;;;;;5092849;28;20024;-72
2022/11/10 04:38:51;;;;;;;16.02;2.95;;;12.80;99.90;;;;;;5092625;28;20066;-71
2022/11/10 04:41:18;;;;;;;20.83;2.72;;;12.80;99.90;;;;;;5092893;28;20471;-70
2022/11/10 04:43:44;;;;;;;18.77;2.88;;;12.80;99.90;;;;;;5092455;28;20044;-71
2022/11/10 04:46:26;;;;;;;14.38;2.40;;;12.80;99.90;;;;;;5082757;28;20483;-72
2022/11/10 04:48:53;;;;;;;27.42;3.30;;;12.80;99.90;;;;;;5088254;28;20451;-72
2022/11/10 04:51:21;;;;;;;22.50;2.00;;;12.80;99.90;;;;;;5075483;28;20044;-71
2022/11/10 04:53:47;;;;;;;20.25;2.90;;;12.80;99.90;;;;;;5092520;28;20051;-70
2022/11/10 04:56:36;;;;;;;22.42;2.53;;;12.80;99.90;;;;;;5093019;28;20105;-72
2022/11/10 04:59:01;;;;;;;16.15;2.28;;;12.70;99.90;;;;;;5091921;28;20450;-72
2022/11/10 05:01:27;;;;;;;19.38;2.17;;;12.70;99.90;;;;;;5077147;28;20047;-72
2022/11/10 05:03:53;;;;;;;15.73;2.67;;;12.70;99.90;;;;;;5092662;28;20016;-71
2022/11/10 05:06:20;;;;;;;22.98;3.03;;;12.80;99.90;;;;;;5096181;28;20020;-72
2022/11/10 05:08:46;;;;;;;19.48;2.35;;;12.80;99.90;;;;;;5096297;28;20016;-71
2022/11/10 05:11:13;;;;;;;17.50;2.70;;;12.80;99.90;;;;;;5095660;28;20044;-72
2022/11/10 05:13:39;;;;;;;18.85;2.60;;;12.80;99.90;;;;;;5096229;28;20016;-72
2022/11/10 05:16:05;;;;;;;15.85;2.30;;;12.70;99.90;;;;;;5096392;28;20462;-72
2022/11/10 05:18:30;;;;;;;15.55;2.47;;;12.80;99.90;;;;;;5085846;28;20024;-72
2022/11/10 05:20:56;;;;;;;13.77;2.30;;;12.80;99.90;;;;;;5094859;28;20024;-73
2022/11/10 05:23:37;;;;;;;17.52;2.60;;;12.70;99.90;;;;;;5096175;28;20112;-72
2022/11/10 05:26:08;;;;;;;16.52;2.53;;;12.60;99.90;;;;;;5095935;28;20452;-72
2022/11/10 05:28:34;;;;;;;14.10;2.20;;;12.40;99.90;;;;;;5091277;28;20039;-71
2022/11/10 05:31:00;;;;;;;16.33;3.08;;;12.30;99.90;;;;;;5095953;28;20448;-73
2022/11/10 05:33:25;;;;;;;19.08;3.22;;;12.20;99.90;;;;;;5077324;28;20044;-72
2022/11/10 05:35:51;;;;;;;18.67;2.60;;;12.10;99.90;;;;;;5094136;28;20463;-71
2022/11/10 05:38:17;;;;;;;19.83;2.78;;;12.00;99.90;;;;;;5095965;28;20028;-72
2022/11/10 05:40:42;;;;;;;16.85;2.60;;;12.00;99.90;;;;;;5095468;28;20034;-70
2022/11/10 05:43:09;;;;;;;21.02;2.90;;;12.00;99.90;;;;;;5094406;28;20040;-71
2022/11/10 05:45:35;;;;;;;13.90;2.40;;;12.00;99.90;;;;;;5076184;28;20470;-71
2022/11/10 05:48:00;;;;;;;20.25;2.70;;;12.00;99.90;;;;;;5094576;28;20028;-70
2022/11/10 05:50:26;;;;;;;15.52;2.97;;;12.00;99.90;;;;;;5095346;28;20114;-71
2022/11/10 05:52:53;;;;;;;16.65;2.72;;;12.00;99.90;;;;;;5095320;28;20440;-71
2022/11/10 05:55:21;;;;;;;20.77;2.33;;;12.10;99.90;;;;;;5092593;28;20028;-72
2022/11/10 05:57:49;;;;;;;19.17;3.22;;;12.10;99.90;;;;;;5081819;28;20013;-71
2022/11/10 06:00:16;;;;;;;15.50;2.97;;;12.10;99.90;;;;;;5084905;28;20086;-71
2022/11/10 06:02:42;;;;;;;17.58;2.90;;;12.10;99.90;;;;;;5089428;28;20054;-72
2022/11/10 06:05:09;;;;;;;13.55;2.50;;;12.10;99.90;;;;;;5094948;28;20024;-70
2022/11/10 06:07:36;;;;;;;19.58;2.40;;;12.20;99.90;;;;;;5095522;28;20016;-72
2022/11/10 06:10:02;;;;;;;18.85;2.90;;;12.20;99.90;;;;;;5094913;28;20083;-72
2022/11/10 06:12:30;;;;;;;20.00;2.72;;;12.20;99.90;;;;;;5094015;28;20469;-72
2022/11/10 06:14:59;;;;;;;21.42;3.13;;;12.20;99.90;;;;;;5093632;28;20027;-71
2022/11/10 06:17:25;;;;;;;21.23;3.08;;;12.30;99.90;;;;;;5084447;28;20020;-72
2022/11/10 06:19:51;;;;;;;15.55;2.60;;;12.30;99.90;;;;;;5095328;28;20101;-71
2022/11/10 06:22:16;;;;;;;20.67;3.45;;;12.40;99.90;;;;;;5095348;28;20065;-72
2022/11/10 06:24:42;;;;;;;15.75;2.50;;;12.40;99.90;;;;;;5095106;28;20402;-72
2022/11/10 06:27:08;;;;;;;18.98;2.88;;;12.40;99.90;;;;;;5078370;28;20060;-72
2022/11/10 06:29:33;;;;;;;15.82;2.58;;;12.40;99.90;;;;;;5094450;28;20341;-72
2022/11/10 06:31:59;;;;;;;19.92;2.20;;;12.40;99.90;;;;;;5086505;28;20048;-71
2022/11/10 06:34:24;;;;;;;18.58;2.90;;;12.40;99.90;;;;;;5082912;28;20047;-70
2022/11/10 06:36:50;;;;;;;12.98;2.05;;;12.40;99.90;;;;;;5094589;28;20452;-72
2022/11/10 06:39:15;;;;;;;16.92;2.72;;;12.40;99.90;;;;;;5094708;28;20454;-73
2022/11/10 06:41:41;;;;;;;20.50;2.92;;;12.50;99.90;;;;;;5085631;28;20015;-73
2022/11/10 06:44:07;;;;;;;22.02;2.67;;;12.60;99.90;;;;;;5094927;28;20044;-70
2022/11/10 06:46:32;;;;;;;22.30;3.42;;;12.70;99.90;;;;;;5081504;28;20028;-72
2022/11/10 06:48:58;;;;;;;20.23;2.50;;;12.70;99.90;;;;;;5090729;28;20035;-73
2022/11/10 06:51:23;;;;;;;20.90;3.10;;;12.80;99.90;;;;;;5077365;28;20024;-72
2022/11/10 06:53:49;;;;;;;14.10;2.33;;;12.80;99.90;;;;;;5094014;28;20031;-71
2022/11/10 06:56:14;;;;;;;20.67;5.03;;;12.80;99.90;;;;;;5094307;28;20524;-73
2022/11/10 06:58:40;;;;;;;18.17;2.95;;;12.90;99.90;;;;;;5094788;28;20031;-72
2022/11/10 07:01:05;;;;;;;20.42;3.05;;;12.90;99.90;;;;;;5077411;28;20024;-72
2022/11/10 07:03:31;;;;;;;19.38;3.88;;;13.00;99.90;;;;;;5089521;28;20035;-72
2022/11/10 07:05:57;;;;;;;20.67;3.47;;;13.00;99.90;;;;;;5086980;28;20016;-71
2022/11/10 07:08:23;;;;;;;18.63;3.10;;;13.10;99.90;;;;;;5082406;28;20040;-73
2022/11/10 07:10:53;;;;;;;17.27;2.85;;;13.10;99.90;;;;;;5080423;28;20032;-72
2022/11/10 07:13:19;;;;;;;18.38;3.20;;;13.20;99.90;;;;;;5093981;28;20131;-71
2022/11/10 07:15:45;;;;;;;19.85;3.75;;;13.30;99.90;;;;;;5087524;28;20035;-73
2022/11/10 07:18:10;;;;;;;23.00;3.28;;;13.30;99.90;;;;;;5084069;28;20020;-72
2022/11/10 07:20:36;;;;;;;19.85;3.75;;;13.40;99.90;;;;;;5085652;28;20052;-71
2022/11/10 07:23:04;;;;;;;19.17;3.40;;;13.40;99.90;;;;;;5093433;28;20070;-73
2022/11/10 07:25:34;;;;;;;17.10;2.72;;;13.50;99.90;;;;;;5093233;28;20371;-72
2022/11/10 07:28:02;;;;;;;11.35;2.00;;;13.60;99.90;;;;;;5093587;28;20027;-72
2022/11/10 07:30:29;;;;;;;19.38;3.45;;;13.70;99.90;;;;;;5093383;28;20943;-72
2022/11/10 07:33:03;;;;;;;15.90;3.35;;;13.70;99.90;;;;;;5093934;28;20016;-71
2022/11/10 07:35:30;;;;;;;18.77;3.92;;;13.90;99.90;;;;;;5077609;28;20012;-72
2022/11/10 07:37:57;;;;;;;16.67;3.25;;;13.90;99.90;;;;;;5093457;28;20012;-71
2022/11/10 07:40:23;;;;;;;24.52;5.57;;;13.90;99.90;;;;;;5092918;28;20031;-73
2022/11/10 07:42:49;;;;;;;21.73;3.78;;;13.90;99.90;;;;;;5084690;28;20036;-71
2022/11/10 07:45:14;;;;;;;20.80;3.80;;;13.90;99.90;;;;;;5091841;28;20032;-71
2022/11/10 07:47:40;;;;;;;24.02;3.78;;;13.90;99.90;;;;;;5093276;28;20017;-71
2022/11/10 07:50:06;;;;;;;25.73;3.72;;;14.00;99.90;;;;;;5084026;28;20036;-71
2022/11/10 07:52:32;;;;;;;23.25;3.28;;;14.00;99.90;;;;;;5086092;28;20073;-73
2022/11/10 07:54:57;;;;;;;19.02;3.38;;;14.10;99.90;;;;;;5077127;28;20099;-71
2022/11/10 07:57:23;;;;;;;29.13;3.45;;;14.10;99.90;;;;;;5089513;28;20100;-73
2022/11/10 07:59:48;;;;;;;20.05;3.13;;;14.20;99.90;;;;;;5080129;28;20024;-71
2022/11/10 08:02:14;;;;;;;16.55;3.20;;;14.20;99.90;;;;;;5092940;28;20031;-72
2022/11/10 08:04:41;;;;;;;16.60;3.88;;;14.10;99.90;;;;;;5093304;28;20020;-73
2022/11/10 08:07:06;;;;;;;12.88;2.35;;;14.00;99.90;;;;;;5092421;28;20016;-73
2022/11/10 08:09:32;;;;;;;13.68;2.90;;;13.90;99.90;;;;;;5086273;28;20355;-72
2022/11/10 08:11:57;;;;;;;24.27;3.60;;;13.80;99.90;;;;;;5083334;28;20069;-70
2022/11/10 08:14:23;;;;;;;18.00;3.95;;;13.70;99.90;;;;;;5090475;28;20023;-73
2022/11/10 08:16:49;;;;;;;22.27;3.45;;;13.60;99.90;;;;;;5077286;28;20021;-73
2022/11/10 08:19:15;;;;;;;18.25;3.00;;;13.60;99.90;;;;;;5091735;28;20016;-72
2022/11/10 08:21:40;;;;;;;15.02;3.40;;;13.60;99.90;;;;;;5088736;28;20039;-70
2022/11/10 08:24:06;;;;;;;19.83;3.00;;;13.60;99.90;;;;;;5092392;28;20525;-71
2022/11/10 08:26:31;;;;;;;18.58;3.88;;;13.50;99.90;;;;;;5092678;28;20440;-70
2022/11/10 08:28:57;;;;;;;26.95;3.33;;;13.60;99.90;;;;;;5093009;28;20423;-70
2022/11/10 08:31:23;;;;;;;20.38;3.05;;;13.60;99.90;;;;;;5076096;28;20040;-72
2022/11/10 08:33:48;;;;;;;23.42;3.95;;;13.60;99.90;;;;;;5092630;28;20423;-71
2022/11/10 08:36:14;;;;;;;21.90;3.80;;;13.60;99.90;;;;;;5083383;28;20020;-69
2022/11/10 08:38:40;;;;;;;23.08;3.95;;;13.70;99.90;;;;;;5096638;28;20103;-70
2022/11/10 08:41:05;;;;;;;20.95;3.90;;;13.70;99.90;;;;;;5096638;28;20024;-70
2022/11/10 08:43:31;;;;;;;16.00;3.88;;;13.70;99.90;;;;;;5096709;28;20054;-70
2022/11/10 08:45:57;;;;;;;23.00;4.10;;;13.80;99.90;;;;;;5096855;28;20020;-70
2022/11/10 08:48:23;;;;;;;25.10;4.35;;;14.00;99.90;;;;;;5095343;28;20028;-70
2022/11/10 08:50:49;;;;;;;19.58;4.07;;;14.10;99.90;;;;;;5093952;28;20040;-70
2022/11/10 08:53:20;;;;;;;17.98;3.53;;;14.30;99.90;;;;;;5094846;28;20039;-70
2022/11/10 08:55:46;;;;;;;15.40;3.03;;;14.40;99.90;;;;;;5097072;28;20020;-70
2022/11/10 08:58:14;;;;;;;16.33;3.95;;;14.60;99.90;;;;;;5096387;28;20374;-70
2022/11/10 09:00:40;;;;;;;15.90;3.05;;;14.70;99.90;;;;;;5096593;28;20095;-70
2022/11/10 09:03:19;;;;;;;19.95;4.10;;;14.60;99.90;;;;;;5087276;28;20107;-70
2022/11/10 09:05:46;;;;;;;17.20;3.08;;;14.70;99.90;;;;;;5090520;28;20016;-70
2022/11/10 09:08:12;;;;;;;18.65;3.25;;;14.80;99.90;;;;;;5083879;28;20024;-70
2022/11/10 09:10:45;;;;;;;15.48;3.38;;;14.90;99.90;;;;;;5094344;28;20046;-70
2022/11/10 09:13:12;;;;;;;20.85;3.20;;;14.90;99.90;;;;;;5079832;28;20028;-70
2022/11/10 09:15:38;;;;;;;13.38;2.85;;;15.10;99.90;;;;;;5096278;28;20028;-70
2022/11/10 09:18:06;;;;;;;13.90;2.88;;;15.40;99.90;;;;;;5095990;28;20123;-70
2022/11/10 09:20:33;;;;;;;10.75;3.08;;;15.60;99.90;;;;;;5075359;28;20078;-70
2022/11/10 09:23:13;;;;;;;15.10;3.08;;;15.60;99.90;;;;;;5096784;28;20031;-70
2022/11/10 09:25:39;;;;;;;21.77;3.78;;;15.80;99.90;;;;;;5110858;28;20111;-70
2022/11/10 09:28:05;;;;;;;14.25;2.25;;;15.90;99.90;;;;;;5096385;28;20062;-71
2022/11/10 09:30:31;;;;;;;14.32;2.28;;;16.10;99.90;;;;;;5091240;28;20040;-71
2022/11/10 09:32:59;;;;;;;18.88;3.08;;;16.20;99.90;;;;;;5079855;28;20437;-70
2022/11/10 09:35:26;;;;;;;18.95;2.95;;;16.10;99.90;;;;;;5090418;28;20475;-70
2022/11/10 09:37:51;;;;;;;16.38;2.40;;;16.10;99.90;;;;;;5091953;28;20012;-70
2022/11/10 09:40:22;;;;;;;14.18;2.08;;;16.10;99.90;;;;;;5095861;28;20088;-69
2022/11/10 09:42:53;;;;;;;20.70;3.10;;;15.90;99.90;;;;;;5095665;28;20051;-71
2022/11/10 09:45:21;;;;;;;6.90;1.83;;;15.90;99.90;;;;;;5093080;28;20021;-70
2022/11/10 09:48:21;;;;;;;20.13;3.00;;;15.90;99.90;;;;;;5082316;28;20095;-71
2022/11/10 09:51:02;;;;;;;19.30;2.95;;;15.80;99.90;;;;;;5080616;28;20499;-70
2022/11/10 09:53:55;;;;;;;17.08;2.72;;;15.90;99.90;;;;;;5092779;28;20023;-70
2022/11/10 09:56:29;;;;;;;20.60;2.80;;;15.80;99.90;;;;;;5083157;28;20027;-70
2022/11/10 09:58:55;;;;;;;12.85;2.63;;;15.80;99.90;;;;;;5091454;28;20016;-70
2022/11/10 10:01:45;;;;;;;17.00;2.80;;;15.80;99.90;;;;;;5078748;28;20031;-69
2022/11/10 11:28:25;;;;;;;20.75;3.03;;;16.20;99.90;;;;;;5068634;28;20959;-69
2022/11/10 11:31:48;;;;;;;15.32;2.70;;;16.10;99.90;;;;;;5089822;28;20032;-71
2022/11/10 11:34:21;;;;;;;;;;;16.00;99.90;;;;;;5069447;28;20098;-72
2022/11/10 11:36:57;;;;;;;24.85;3.60;;;15.80;99.90;;;;;;5070967;28;20360;-69
2022/11/10 11:39:55;;;;;;;23.40;3.35;;;15.70;99.90;;;;;;5073154;28;20024;-69
2022/11/10 11:42:27;;;;;;;17.20;2.75;;;15.60;99.90;;;;;;5093036;28;20043;-70
2022/11/10 11:45:18;;;;;;;22.50;3.33;;;15.60;99.90;;;;;;5093660;28;20103;-71
2022/11/10 11:47:47;;;;;;;25.27;3.28;;;15.60;99.90;;;;;;5088963;28;20035;-72
2022/11/10 11:50:21;;;;;;;23.23;3.95;;;15.50;99.90;;;;;;5093024;28;20059;-70
2022/11/10 11:53:08;;;;;;;16.38;2.40;;;15.50;99.90;;;;;;5093454;28;20018;-69
2022/11/10 11:55:59;;;;;;;16.98;2.28;;;15.50;99.90;;;;;;5076947;28;20024;-71
2022/11/10 11:58:39;;;;;;;17.48;3.42;;;15.50;99.90;;;;;;5084016;28;20111;-72
2022/11/10 12:01:13;;;;;;;17.70;3.35;;;15.40;99.90;;;;;;5092248;28;20042;-71
2022/11/10 12:04:00;;;;;;;15.02;2.78;;;15.40;99.90;;;;;;5092124;28;20103;-70
2022/11/10 12:06:41;;;;;;;17.08;2.92;;;15.40;99.90;;;;;;5093559;28;20020;-69
2022/11/10 12:09:46;;;;;;;16.30;2.45;;;15.50;99.90;;;;;;5092169;28;20039;-70
2022/11/10 12:12:35;;;;;;;16.88;3.20;;;15.50;99.90;;;;;;5064394;28;20396;-68
2022/11/10 12:15:10;;;;;;;22.65;3.22;;;15.60;99.90;;;;;;5089487;28;20043;-69
2022/11/10 12:17:46;;;;;;;17.08;2.58;;;15.60;99.90;;;;;;5105587;28;20027;-71
2022/11/10 12:20:38;;;;;;;14.75;3.95;;;15.50;99.90;;;;;;5090466;28;20035;-70
2022/11/10 12:23:12;;;;;;;17.17;3.25;;;15.30;99.90;;;;;;5089938;28;20028;-71
2022/11/10 12:26:07;;;;;;;17.25;3.17;;;15.20;99.90;;;;;;5093240;28;20016;-69
2022/11/10 12:28:44;;;;;;;16.55;2.08;;;15.10;99.90;;;;;;5092502;28;20032;-71
2022/11/10 12:31:16;;;;;;;11.95;2.78;;;15.10;99.90;;;;;;5092259;28;20092;-72
2022/11/10 12:34:04;;;;;;;20.08;4.03;;;15.10;99.90;;;;;;5089167;28;20032;-70
2022/11/10 12:36:30;;;;;;;15.18;3.17;;;15.10;99.90;;;;;;5081922;28;20074;-72
2022/11/10 12:39:14;;;;;;;25.10;3.92;;;15.00;99.90;;;;;;5093000;28;20099;-70
2022/11/10 12:41:53;;;;;;;12.35;2.55;;;15.00;99.90;;;;;;5092906;28;20054;-70
2022/11/10 12:44:37;;;;;;;18.83;3.50;;;15.00;99.90;;;;;;5093170;28;20028;-70
2022/11/10 12:47:10;;;;;;;14.63;3.20;;;14.90;99.90;;;;;;5093478;28;20371;-69
2022/11/10 12:49:42;;;;;;;24.92;3.58;;;15.00;99.90;;;;;;5093139;28;20028;-70
2022/11/10 12:52:20;;;;;;;15.88;3.97;;;15.00;99.90;;;;;;5093211;28;20036;-70
2022/11/10 12:54:46;;;;;;;16.45;2.95;;;15.00;99.90;;;;;;5092745;28;20047;-72
2022/11/10 12:57:20;;;;;;;17.88;2.83;;;15.10;99.90;;;;;;5092859;28;20451;-69
2022/11/10 12:59:58;;;;;;;18.75;2.80;;;15.20;99.90;;;;;;5093410;28;20037;-70
2022/11/10 13:02:44;;;;;;;17.17;2.95;;;15.40;99.90;;;;;;5093092;28;20028;-71
2022/11/10 13:05:23;;;;;;;21.85;3.17;;;15.50;99.90;;;;;;5091814;28;20077;-71
2022/11/10 13:08:02;;;;;;;18.60;3.92;;;15.60;99.90;;;;;;5093049;28;20039;-71
2022/11/10 13:10:28;;;;;;;20.48;5.18;;;15.70;99.90;;;;;;5093333;28;20119;-70
2022/11/10 13:13:02;;;;;;;23.92;6.35;;;15.70;99.90;;;;;;5091900;28;20052;-71
2022/11/10 13:15:34;;;;;;;25.75;4.82;;;15.70;99.90;;;;;;5093178;28;20444;-70
2022/11/10 13:18:00;;;;;;;15.02;2.92;;;15.70;99.90;;;;;;5093299;28;20028;-70
2022/11/10 13:20:37;;;;;;;17.63;2.80;;;15.70;99.90;;;;;;5092712;28;20024;-68
2022/11/10 13:23:22;;;;;;;24.33;4.97;;;15.70;99.90;;;;;;5094880;28;20024;-71
2022/11/10 13:25:52;;;;;;;21.02;3.45;;;15.70;99.90;;;;;;5090315;28;20012;-69
2022/11/10 13:28:46;;;;;;;19.10;3.90;;;15.80;99.90;;;;;;5084430;28;20062;-71
2022/11/10 13:31:27;;;;;;;21.77;4.72;;;15.70;99.90;;;;;;5096490;28;20525;-71
2022/11/10 13:34:04;;;;;;;25.77;5.78;;;15.60;99.90;;;;;;5091245;28;20090;-71
2022/11/10 13:36:47;;;;;;;25.85;9.15;;;15.40;99.90;;;;;;5084776;28;20027;-70
2022/11/10 13:39:19;;;;;;;22.83;5.85;;;15.30;99.90;;;;;;5085936;28;20035;-70
2022/11/10 13:42:07;;;;;;;19.73;5.93;;;15.20;99.90;;;;;;5096061;28;20031;-69
2022/11/10 13:44:38;;;;;;;19.38;4.47;;;15.20;99.90;;;;;;5095951;28;20020;-69
2022/11/10 13:47:33;;;;;;;23.83;5.10;;;15.10;99.90;;;;;;5096121;28;20039;-72
2022/11/10 13:50:22;;;;;;;16.77;4.03;;;15.20;99.90;;;;;;5095876;28;20260;-71
2022/11/10 13:53:14;;;;;;;23.83;3.80;;;15.10;99.90;;;;;;5096102;28;20027;-70
2022/11/10 13:55:51;;;;;;;17.98;3.38;;;15.10;99.90;;;;;;5096059;28;20027;-70
2022/11/10 13:58:28;;;;;;;24.48;5.10;;;15.10;99.90;;;;;;5095818;28;20032;-70
2022/11/10 14:01:21;;;;;;;18.10;5.25;;;15.10;99.90;;;;;;5095606;28;20020;-68
2022/11/10 14:03:47;;;;;;;22.38;5.38;;;15.10;99.90;;;;;;5095561;28;20087;-68
2022/11/10 14:06:19;;;;;;;19.33;5.13;;;15.00;99.90;;;;;;5095718;28;20106;-68
2022/11/10 14:08:53;;;;;;;18.80;4.25;;;15.00;99.90;;;;;;5095368;28;20061;-71
2022/11/10 14:11:25;;;;;;;16.25;4.35;;;15.00;99.90;;;;;;5095681;28;20500;-69
2022/11/10 14:13:56;;;;;;;18.02;4.38;;;15.00;99.90;;;;;;5095739;28;20020;-71
2022/11/10 14:16:24;;;;;;;15.23;4.70;;;15.00;99.90;;;;;;5093550;28;20427;-72
2022/11/10 14:18:59;;;;;;;16.40;4.72;;;15.00;99.90;;;;;;5092473;28;20398;-68
2022/11/10 14:21:37;;;;;;;22.55;5.05;;;15.00;99.90;;;;;;5091979;28;20086;-69
2022/11/10 14:24:18;;;;;;;17.77;3.63;;;15.00;99.90;;;;;;5089291;28;20016;-69
2022/11/10 14:26:49;;;;;;;15.55;3.20;;;15.00;99.90;;;;;;5091332;28;20038;-71